createdAt,value
2022-11-28T08:13:18.489Z,7.88
2022-11-28T08:16:21.779Z,8.77
2022-11-28T08:19:00.574Z,9.18
2022-11-28T08:21:37.326Z,9.16
2022-11-28T08:24:12.530Z,8.21
2022-11-28T08:26:45.983Z,7.30
2022-11-28T08:29:19.615Z,6.90
2022-11-28T08:31:53.555Z,7.69
2022-11-28T08:34:27.060Z,8.21
2022-11-28T08:37:01.112Z,8.63
2022-11-28T08:39:36.349Z,8.97
2022-11-28T08:42:10.754Z,9.20
2022-11-28T08:44:44.544Z,8.55
2022-11-28T08:47:19.180Z,7.51
2022-11-28T08:49:53.878Z,6.68
2022-11-28T08:52:29.573Z,6.44
2022-11-28T08:55:04.421Z,7.40
2022-11-28T08:57:38.288Z,8.09
2022-11-28T09:00:15.671Z,8.59
2022-11-28T09:02:49.526Z,9.26
2022-11-28T09:05:22.887Z,9.50
2022-11-28T09:07:59.801Z,8.77
2022-11-28T09:10:37.309Z,7.85
2022-11-28T09:13:12.537Z,7.63
2022-11-28T09:15:52.723Z,9.17
2022-11-28T09:18:28.927Z,9.68
2022-11-28T09:21:11.082Z,8.70
2022-11-28T09:23:46.567Z,7.74
2022-11-28T09:26:23.260Z,7.53
2022-11-28T09:28:58.606Z,8.59
2022-11-28T09:31:33.121Z,9.19
2022-11-28T09:34:07.460Z,9.53
2022-11-28T09:36:42.235Z,9.53
2022-11-28T09:39:17.554Z,8.72
2022-11-28T09:42:06.027Z,7.93
2022-11-28T09:44:47.601Z,8.33
2022-11-28T09:47:28.224Z,9.80
2022-11-28T09:50:11.205Z,9.88
2022-11-28T09:52:57.567Z,8.84
2022-11-28T09:55:41.483Z,8.09
2022-11-28T09:58:27.200Z,8.71
2022-11-28T10:01:15.589Z,9.25
2022-11-28T10:04:01.302Z,9.61
2022-11-28T10:06:46.647Z,10.02
2022-11-28T10:09:40.504Z,9.87
2022-11-28T10:12:34.939Z,8.73
2022-11-28T10:15:31.017Z,7.90
2022-11-28T10:18:29.642Z,8.95
2022-11-28T10:21:16.933Z,10.50
2022-11-28T10:23:57.089Z,10.34
2022-11-28T10:26:39.045Z,9.24
2022-11-28T10:29:31.646Z,8.31
2022-11-28T10:32:10.291Z,8.19
2022-11-28T10:34:56.225Z,9.85
2022-11-28T10:37:34.602Z,10.63
2022-11-28T10:40:27.739Z,9.65
2022-11-28T10:43:08.133Z,8.59
2022-11-28T10:45:55.293Z,8.52
2022-11-28T10:48:48.666Z,10.17
2022-11-28T10:51:45.096Z,10.86
2022-11-28T10:54:36.350Z,9.68
2022-11-28T10:57:25.395Z,8.63
2022-11-28T11:00:12.647Z,8.10
2022-11-28T11:02:52.308Z,9.42
2022-11-28T11:05:32.478Z,10.51
2022-11-28T11:08:19.753Z,9.83
2022-11-28T11:11:03.001Z,8.81
2022-11-28T11:13:56.321Z,8.13
2022-11-28T11:16:49.387Z,7.91
2022-11-28T11:19:35.495Z,9.32
2022-11-28T11:22:28.851Z,10.34
2022-11-28T11:25:28.513Z,9.87
2022-11-28T11:28:06.502Z,8.62
2022-11-28T11:30:43.547Z,8.05
2022-11-28T11:33:21.906Z,9.07
2022-11-28T11:36:04.035Z,9.89
2022-11-28T11:38:39.416Z,9.02
2022-11-28T11:41:35.994Z,7.97
2022-11-28T11:44:34.735Z,7.71
2022-11-28T11:47:11.640Z,9.08
2022-11-28T11:49:49.046Z,9.86
2022-11-28T11:52:30.216Z,9.40
2022-11-28T11:55:19.579Z,8.34
2022-11-28T11:58:05.283Z,7.45
2022-11-28T12:00:43.861Z,7.81
2022-11-28T12:03:32.613Z,8.96
2022-11-28T12:06:16.454Z,9.80
2022-11-28T12:09:12.761Z,9.14
2022-11-28T12:11:56.738Z,8.06
2022-11-28T12:14:38.996Z,7.34
2022-11-28T12:17:53.409Z,7.66
2022-11-28T12:20:48.172Z,9.02
2022-11-28T12:23:52.588Z,10.04
2022-11-28T12:26:35.345Z,9.89
2022-11-28T12:29:40.670Z,8.69
2022-11-28T12:32:38.660Z,7.61
2022-11-28T12:35:40.772Z,6.88
2022-11-28T12:38:36.762Z,7.16
2022-11-28T12:41:34.390Z,9.08
2022-11-28T12:44:24.156Z,9.92
2022-11-28T12:47:10.860Z,9.47
2022-11-28T12:49:58.954Z,8.31
2022-11-28T12:52:49.920Z,7.46
2022-11-28T12:55:36.982Z,7.73
2022-11-28T12:58:20.879Z,9.42
2022-11-28T13:01:17.083Z,9.64
2022-11-28T13:04:12.379Z,8.41
2022-11-28T13:07:01.090Z,7.38
2022-11-28T13:09:39.166Z,6.72
2022-11-28T13:12:33.217Z,7.48
2022-11-28T13:15:20.432Z,8.59
2022-11-28T13:18:05.324Z,9.45
2022-11-28T13:20:49.008Z,9.44
2022-11-28T13:23:34.231Z,8.40
2022-11-28T13:26:19.158Z,7.37
2022-11-28T13:29:01.917Z,7.59
2022-11-28T13:31:46.594Z,8.55
2022-11-28T13:34:23.265Z,8.95
2022-11-28T13:40:21.276Z,8.12
2022-11-28T13:43:08.232Z,7.18
2022-11-28T13:45:48.154Z,6.88
2022-11-28T13:49:14.447Z,7.77
2022-11-28T13:51:50.199Z,8.34
2022-11-28T13:54:55.817Z,8.49
2022-11-28T13:57:39.443Z,8.68
2022-11-28T14:00:27.850Z,8.79
2022-11-28T14:03:03.057Z,8.94
2022-11-28T14:05:41.893Z,9.05
2022-11-28T14:08:37.601Z,8.20
2022-11-28T14:11:57.058Z,7.21
2022-11-28T14:14:57.002Z,6.64
2022-11-28T14:18:24.744Z,7.85
2022-11-28T14:21:12.053Z,8.84
2022-11-28T14:24:00.083Z,8.92
2022-11-28T14:26:38.856Z,8.02
2022-11-28T14:29:30.549Z,7.08
2022-11-28T14:32:29.158Z,6.47
2022-11-28T14:35:03.750Z,7.57
2022-11-28T14:37:58.073Z,8.62
2022-11-28T14:41:12.444Z,9.24
2022-11-28T14:43:49.271Z,8.98
2022-11-28T14:46:35.527Z,7.88
2022-11-28T14:49:26.184Z,6.87
2022-11-28T14:52:41.164Z,6.23
2022-11-28T14:55:26.175Z,7.00
2022-11-28T14:58:04.102Z,8.39
2022-11-28T15:01:00.633Z,9.05
2022-11-28T15:03:46.987Z,9.13
2022-11-28T15:06:30.648Z,8.13
2022-11-28T15:09:16.984Z,7.09
2022-11-28T15:12:15.824Z,6.88
2022-11-28T15:14:56.758Z,7.90
2022-11-28T15:17:35.897Z,8.43
2022-11-28T15:20:20.823Z,9.32
2022-11-28T15:22:55.947Z,9.39
2022-11-28T15:25:35.940Z,8.25
2022-11-28T15:28:25.860Z,7.17
2022-11-28T15:31:04.322Z,6.40
2022-11-28T15:33:41.397Z,6.72
2022-11-28T15:36:32.094Z,7.75
2022-11-28T15:39:06.662Z,8.23
2022-11-28T15:41:42.396Z,8.48
2022-11-28T15:44:20.260Z,8.87
2022-11-28T15:46:54.559Z,8.75
2022-11-28T15:49:36.545Z,7.82
2022-11-28T15:52:18.060Z,6.89
2022-11-28T15:54:54.605Z,6.70
2022-11-28T15:57:33.051Z,8.01
2022-11-28T16:00:13.969Z,8.77
2022-11-28T16:02:50.050Z,9.40
2022-11-28T16:05:25.227Z,9.11
2022-11-28T16:07:59.312Z,7.92
2022-11-28T16:10:39.996Z,6.88
2022-11-28T16:13:21.438Z,6.75
2022-11-28T16:15:58.817Z,8.45
2022-11-28T16:18:35.135Z,9.48
2022-11-28T16:21:15.729Z,9.43
2022-11-28T16:23:51.390Z,8.28
2022-11-28T16:26:39.030Z,7.20
2022-11-28T16:29:19.734Z,6.34
2022-11-28T16:31:55.111Z,7.24
2022-11-28T16:34:50.335Z,8.71
2022-11-28T16:37:31.010Z,9.31
2022-11-28T16:40:15.159Z,8.16
2022-11-28T16:42:58.993Z,6.98
2022-11-28T16:45:35.367Z,6.30
2022-11-28T16:48:17.220Z,7.53
2022-11-28T16:51:33.090Z,8.68
2022-11-28T16:54:36.027Z,9.39
2022-11-28T16:57:18.005Z,9.64
2022-11-28T16:59:53.478Z,8.53
2022-11-28T17:02:29.488Z,7.31
2022-11-28T17:05:03.594Z,6.38
2022-11-28T17:07:38.414Z,6.46
2022-11-28T17:10:17.210Z,8.19
2022-11-28T17:12:50.703Z,8.83
2022-11-28T17:15:26.992Z,7.92
2022-11-28T17:18:00.538Z,6.88
2022-11-28T17:20:34.148Z,6.22
2022-11-28T17:23:09.815Z,7.07
2022-11-28T17:25:44.127Z,8.26
2022-11-28T17:28:22.350Z,8.92
2022-11-28T17:31:00.630Z,8.84
2022-11-28T17:33:34.650Z,7.79
2022-11-28T17:36:11.643Z,6.78
2022-11-28T17:38:45.670Z,6.18
2022-11-28T17:41:19.418Z,7.15
2022-11-28T17:43:55.454Z,8.08
2022-11-28T17:46:31.841Z,8.32
2022-11-28T17:49:05.582Z,8.11
2022-11-28T17:51:39.269Z,7.22
2022-11-28T17:54:16.802Z,6.50
2022-11-28T17:56:52.891Z,7.65
2022-11-28T17:59:27.888Z,8.60
2022-11-28T18:02:01.459Z,8.20
2022-11-28T18:04:37.825Z,7.09
2022-11-28T18:07:11.146Z,6.27
2022-11-28T18:09:45.307Z,6.91
2022-11-28T18:12:19.411Z,7.90
2022-11-28T18:14:53.496Z,8.52
2022-11-28T18:17:28.395Z,8.85
2022-11-28T18:20:01.810Z,8.08
2022-11-28T18:22:35.837Z,7.01
2022-11-28T18:25:11.548Z,6.36
2022-11-28T18:27:45.025Z,7.54
2022-11-28T18:30:21.282Z,8.69
2022-11-28T18:32:55.056Z,8.38
2022-11-28T18:35:29.455Z,7.27
2022-11-28T18:38:03.271Z,6.40
2022-11-28T18:40:39.297Z,7.28
2022-11-28T18:43:12.514Z,8.18
2022-11-28T18:45:47.246Z,7.94
2022-11-28T18:48:21.001Z,6.92
2022-11-28T18:50:54.038Z,5.99
2022-11-28T18:53:27.926Z,5.73
2022-11-28T18:56:10.153Z,7.10
2022-11-28T18:58:47.352Z,8.23
2022-11-28T19:01:25.529Z,7.76
2022-11-28T19:04:03.470Z,6.60
2022-11-28T19:06:39.330Z,5.71
2022-11-28T19:09:18.910Z,6.79
2022-11-28T19:11:52.591Z,7.89
2022-11-28T19:14:26.414Z,7.21
2022-11-28T19:17:02.521Z,6.01
2022-11-28T19:19:37.811Z,5.80
2022-11-28T19:22:14.862Z,7.00
2022-11-28T19:24:48.412Z,7.56
2022-11-28T19:27:22.887Z,6.82
2022-11-28T19:29:56.423Z,5.76
2022-11-28T19:32:29.801Z,5.21
2022-11-28T19:35:03.658Z,6.22
2022-11-28T19:37:37.312Z,7.09
2022-11-28T19:40:15.245Z,7.26
2022-11-28T19:42:48.978Z,6.34
2022-11-28T19:45:22.788Z,5.39
2022-11-28T19:47:56.863Z,5.51
2022-11-28T19:50:34.248Z,6.89
2022-11-28T19:53:10.433Z,7.59
2022-11-28T19:55:44.869Z,6.63
2022-11-28T19:58:20.120Z,5.49
2022-11-28T20:00:54.815Z,4.87
2022-11-28T20:03:29.327Z,6.23
2022-11-28T20:06:03.479Z,7.31
2022-11-28T20:08:37.399Z,6.77
2022-11-28T20:11:17.839Z,5.64
2022-11-28T20:13:56.316Z,4.94
2022-11-28T20:16:32.939Z,6.13
2022-11-28T20:19:09.490Z,7.45
2022-11-28T20:21:47.018Z,7.19
2022-11-28T20:24:21.402Z,5.95
2022-11-28T20:26:57.411Z,4.98
2022-11-28T20:29:34.264Z,5.66
2022-11-28T20:32:08.432Z,7.27
2022-11-28T20:34:42.826Z,7.76
2022-11-28T20:37:16.978Z,6.74
2022-11-28T20:39:51.116Z,5.54
2022-11-28T20:42:24.962Z,4.68
2022-11-28T20:44:59.236Z,5.36
2022-11-28T20:47:35.060Z,6.56
2022-11-28T20:50:10.614Z,7.08
2022-11-28T20:52:43.857Z,6.37
2022-11-28T20:55:18.249Z,5.35
2022-11-28T20:57:52.005Z,4.98
2022-11-28T21:00:27.836Z,6.33
2022-11-28T21:03:01.484Z,7.52
2022-11-28T21:05:38.432Z,7.78
2022-11-28T21:08:12.325Z,6.59
2022-11-28T21:10:46.905Z,5.48
2022-11-28T21:13:20.358Z,4.66
2022-11-28T21:15:54.965Z,4.74
2022-11-28T21:18:28.643Z,6.23
2022-11-28T21:21:07.811Z,7.09
2022-11-28T21:23:42.026Z,6.32
2022-11-28T21:26:19.485Z,5.27
2022-11-28T21:28:56.811Z,5.31
2022-11-28T21:31:34.313Z,6.74
2022-11-28T21:34:07.679Z,7.46
2022-11-28T21:36:41.340Z,6.58
2022-11-28T21:39:21.177Z,5.56
2022-11-28T21:41:54.623Z,4.71
2022-11-28T21:44:28.077Z,4.40
2022-11-28T21:47:01.840Z,5.69
2022-11-28T21:49:35.834Z,6.79
2022-11-28T21:52:09.774Z,6.37
2022-11-28T21:54:43.703Z,5.32
2022-11-28T21:57:17.402Z,4.77
2022-11-28T21:59:51.187Z,5.96
2022-11-28T22:02:30.628Z,6.94
2022-11-28T22:05:05.103Z,6.37
2022-11-28T22:07:40.462Z,5.36
2022-11-28T22:10:15.678Z,5.06
2022-11-28T22:12:49.082Z,6.22
2022-11-28T22:15:24.611Z,6.64
2022-11-28T22:18:01.548Z,5.94
2022-11-28T22:20:40.148Z,4.96
2022-11-28T22:23:19.443Z,4.37
2022-11-28T22:25:58.817Z,5.55
2022-11-28T22:28:32.748Z,6.80
2022-11-28T22:31:12.395Z,7.33
2022-11-28T22:33:46.104Z,6.46
2022-11-28T22:36:21.877Z,5.39
2022-11-28T22:39:01.265Z,4.53
2022-11-28T22:41:35.099Z,4.97
2022-11-28T22:44:09.293Z,6.46
2022-11-28T22:46:43.847Z,7.31
2022-11-28T22:49:17.905Z,6.84
2022-11-28T22:51:52.007Z,5.67
2022-11-28T22:54:25.266Z,4.74
2022-11-28T22:56:59.398Z,4.08
2022-11-28T22:59:36.924Z,4.63
2022-11-28T23:02:10.112Z,6.11
2022-11-28T23:04:44.289Z,7.17
2022-11-28T23:07:18.715Z,7.18
2022-11-28T23:09:53.259Z,6.09
2022-11-28T23:12:26.911Z,4.99
2022-11-28T23:15:00.625Z,4.49
2022-11-28T23:17:36.028Z,5.57
2022-11-28T23:20:11.860Z,6.76
2022-11-28T23:22:45.386Z,7.07
2022-11-28T23:25:19.331Z,6.16
2022-11-28T23:27:52.449Z,5.08
2022-11-28T23:30:26.828Z,4.34
2022-11-28T23:33:03.008Z,4.21
2022-11-28T23:35:37.688Z,5.47
2022-11-28T23:38:10.898Z,6.64
2022-11-28T23:40:44.909Z,7.54
2022-11-28T23:43:18.123Z,7.17
2022-11-28T23:45:51.169Z,5.94
2022-11-28T23:48:24.682Z,4.97
2022-11-28T23:50:58.574Z,5.16
2022-11-28T23:53:32.093Z,6.38
2022-11-28T23:56:13.855Z,7.01
2022-11-28T23:58:48.193Z,6.22
